createdAt,value
2023-01-17T00:00:33.138Z,1046.42
2023-01-17T00:01:32.954Z,1033.41
2023-01-17T00:02:33.070Z,1026.23
2023-01-17T00:03:33.050Z,1009.10
2023-01-17T00:04:32.922Z,995.51
2023-01-17T00:05:32.925Z,995.51
2023-01-17T00:06:32.985Z,1000.75
2023-01-17T00:07:32.898Z,999.25
2023-01-17T00:08:32.911Z,982.27
2023-01-17T00:09:32.970Z,983.00
2023-01-17T00:10:32.884Z,972.22
2023-01-17T00:11:32.869Z,958.90
2023-01-17T00:12:32.845Z,953.40
2023-01-17T00:13:32.950Z,952.72
2023-01-17T00:14:32.845Z,937.28
2023-01-17T00:15:32.855Z,933.33
2023-01-17T00:16:32.907Z,922.33
2023-01-17T00:17:32.826Z,921.05
2023-01-17T00:18:32.799Z,924.90
2023-01-17T00:19:32.857Z,919.14
2023-01-17T00:20:32.797Z,914.09
2023-01-17T00:21:32.763Z,914.09
2023-01-17T00:22:32.815Z,917.87
2023-01-17T00:23:32.757Z,916.61
2023-01-17T00:24:32.743Z,908.47
2023-01-17T00:25:32.922Z,905.38
2023-01-17T00:26:32.742Z,907.85
2023-01-17T00:27:32.722Z,912.83
2023-01-17T00:28:32.770Z,914.72
2023-01-17T00:29:32.690Z,926.83
2023-01-17T00:30:32.727Z,928.12
2023-01-17T00:31:32.714Z,945.95
2023-01-17T00:32:32.678Z,966.57
2023-01-17T00:33:32.742Z,980.10
2023-01-17T00:34:32.684Z,1006.05
2023-01-17T00:35:32.660Z,1007.58
2023-01-17T00:36:32.677Z,1019.16
2023-01-17T00:37:32.659Z,1035.82
2023-01-17T00:38:32.717Z,1059.76
2023-01-17T00:39:31.601Z,1075.18
2023-01-17T00:40:32.623Z,1076.92
2023-01-17T00:41:32.598Z,1081.30
2023-01-17T00:42:32.574Z,1065.70
2023-01-17T00:43:32.644Z,1068.27
2023-01-17T00:44:32.550Z,1064.85
2023-01-17T00:45:32.582Z,1061.45
2023-01-17T00:46:32.679Z,1052.21
2023-01-17T00:47:32.710Z,1051.38
2023-01-17T00:48:32.533Z,1050.55
2023-01-17T00:49:32.534Z,1046.42
2023-01-17T00:50:32.490Z,1040.69
2023-01-17T00:51:32.580Z,1056.39
2023-01-17T00:52:32.482Z,1070.85
2023-01-17T00:53:32.463Z,1083.94
2023-01-17T00:54:32.506Z,1091.95
2023-01-17T00:55:32.544Z,1088.38
2023-01-17T00:56:32.454Z,1095.55
2023-01-17T00:57:32.430Z,1103.73
2023-01-17T00:58:32.525Z,1146.55
2023-01-17T00:59:32.419Z,1206.90
2023-01-17T01:00:32.534Z,1226.94
2023-01-17T01:01:32.640Z,1245.32
2023-01-17T01:02:32.534Z,1261.86
2023-01-17T01:03:32.381Z,1271.51
2023-01-17T01:04:32.453Z,1298.83
2023-01-17T01:05:32.379Z,1315.53
2023-01-17T01:06:32.374Z,1347.52
2023-01-17T01:07:32.330Z,1366.91
2023-01-17T01:08:32.439Z,1388.31
2023-01-17T01:09:32.332Z,1413.39
2023-01-17T01:10:32.310Z,1425.51
2023-01-17T01:11:32.293Z,1410.39
2023-01-17T01:12:32.379Z,1413.39
2023-01-17T01:13:32.295Z,1414.89
2023-01-17T01:14:32.627Z,1400.00
2023-01-17T01:15:32.256Z,1400.00
2023-01-17T01:16:32.342Z,1394.13
2023-01-17T01:17:32.249Z,1394.13
2023-01-17T01:18:32.240Z,1379.67
2023-01-17T01:19:32.212Z,1366.91
2023-01-17T01:20:32.334Z,1354.38
2023-01-17T01:21:32.200Z,1365.50
2023-01-17T01:22:32.202Z,1340.72
2023-01-17T01:23:32.197Z,1346.15
2023-01-17T01:24:32.361Z,1338.03
2023-01-17T01:25:32.160Z,1353.00
2023-01-17T01:26:32.159Z,1389.76
2023-01-17T01:27:32.159Z,1422.46
2023-01-17T01:28:32.175Z,1451.96
2023-01-17T01:29:32.134Z,1479.42
2023-01-17T01:30:32.135Z,1507.94
2023-01-17T01:31:32.200Z,1513.08
2023-01-17T01:32:32.104Z,1511.36
2023-01-17T01:33:32.097Z,1516.53
2023-01-17T01:34:32.090Z,1503.67
2023-01-17T01:35:32.077Z,1506.23
2023-01-17T01:36:32.073Z,1509.65
2023-01-17T01:37:32.141Z,1502.82
2023-01-17T01:38:32.060Z,1471.24
2023-01-17T01:39:32.021Z,1456.74
2023-01-17T01:40:32.031Z,1434.73
2023-01-17T01:41:32.108Z,1414.89
2023-01-17T01:42:32.012Z,1402.95
2023-01-17T01:43:32.132Z,1383.97
2023-01-17T01:44:32.004Z,1379.67
2023-01-17T01:45:31.983Z,1371.13
2023-01-17T01:46:31.963Z,1346.15
2023-01-17T01:47:32.023Z,1320.75
2023-01-17T01:48:31.957Z,1297.56
2023-01-17T01:49:31.954Z,1266.67
2023-01-17T01:50:32.073Z,1240.67
2023-01-17T01:51:31.973Z,1228.07
2023-01-17T01:52:31.912Z,1216.83
2023-01-17T01:53:31.981Z,1202.53
2023-01-17T01:54:31.911Z,1189.62
2023-01-17T01:55:31.877Z,1182.22
2023-01-17T01:56:31.950Z,1168.72
2023-01-17T01:57:31.875Z,1150.52
2023-01-17T01:58:31.851Z,1139.67
2023-01-17T01:59:31.937Z,1138.70
2023-01-17T02:00:31.833Z,1145.56
2023-01-17T02:01:32.116Z,1138.70
2023-01-17T02:02:31.893Z,1130.95
2023-01-17T02:03:31.910Z,1148.53
2023-01-17T02:04:31.786Z,1154.51
2023-01-17T02:05:31.903Z,1149.52
2023-01-17T02:06:31.792Z,1143.59
2023-01-17T02:07:31.773Z,1116.71
2023-01-17T02:08:31.835Z,1106.49
2023-01-17T02:09:31.756Z,1097.36
2023-01-17T02:10:31.738Z,1095.55
2023-01-17T02:11:31.897Z,1068.27
2023-01-17T02:12:31.716Z,1049.72
2023-01-17T02:13:31.719Z,1035.02
2023-01-17T02:14:31.787Z,1011.41
2023-01-17T02:15:31.695Z,991.80
2023-01-17T02:16:31.742Z,965.17
2023-01-17T02:17:31.784Z,948.64
2023-01-17T02:18:31.711Z,916.61
2023-01-17T02:19:31.650Z,919.78
2023-01-17T02:20:31.638Z,921.05
2023-01-17T02:21:31.740Z,916.61
2023-01-17T02:22:31.627Z,915.35
2023-01-17T02:23:31.607Z,896.83
2023-01-17T02:24:31.730Z,889.04
2023-01-17T02:25:31.624Z,872.13
2023-01-17T02:26:31.579Z,853.11
2023-01-17T02:27:31.674Z,846.06
2023-01-17T02:28:31.570Z,847.67
2023-01-17T02:29:31.555Z,859.73
2023-01-17T02:30:31.578Z,860.84
2023-01-17T02:31:31.621Z,864.76
2023-01-17T02:32:31.527Z,850.93
2023-01-17T02:33:31.671Z,851.47
2023-01-17T02:34:31.517Z,830.73
2023-01-17T02:35:31.514Z,834.90
2023-01-17T02:36:31.601Z,837.53
2023-01-17T02:37:31.485Z,815.95
2023-01-17T02:38:31.534Z,808.02
2023-01-17T02:39:31.563Z,805.08
2023-01-17T02:40:31.475Z,786.52
2023-01-17T02:41:31.460Z,797.36
2023-01-17T02:42:31.449Z,785.12
2023-01-17T02:43:31.531Z,779.14
2023-01-17T02:44:31.417Z,759.13
2023-01-17T02:45:31.413Z,761.30
2023-01-17T02:46:31.553Z,757.40
2023-01-17T02:47:31.413Z,738.15
2023-01-17T02:48:31.379Z,741.45
2023-01-17T02:49:31.452Z,738.97
2023-01-17T02:50:31.372Z,745.52
2023-01-17T02:51:31.352Z,730.04
2023-01-17T02:52:31.347Z,736.51
2023-01-17T02:53:31.383Z,722.89
2023-01-17T02:54:31.337Z,719.76
2023-01-17T02:55:31.310Z,722.89
2023-01-17T02:56:32.587Z,710.52
2023-01-17T02:57:31.355Z,701.52
2023-01-17T02:58:31.282Z,692.74
2023-01-17T02:59:31.390Z,679.28
2023-01-17T03:00:31.279Z,691.30
2023-01-17T03:01:31.353Z,679.28
2023-01-17T03:02:31.383Z,683.47
2023-01-17T03:03:31.250Z,679.28
2023-01-17T03:04:31.232Z,666.33
2023-01-17T03:05:31.312Z,672.40
2023-01-17T03:06:31.229Z,667.00
2023-01-17T03:07:31.249Z,652.59
2023-01-17T03:08:31.199Z,655.81
2023-01-17T03:09:31.192Z,660.37
2023-01-17T03:10:31.172Z,652.59
2023-01-17T03:11:31.169Z,648.13
2023-01-17T03:12:31.314Z,650.03
2023-01-17T03:13:31.134Z,638.17
2023-01-17T03:14:31.141Z,632.10
2023-01-17T03:15:31.249Z,627.32
2023-01-17T03:16:31.129Z,621.46
2023-01-17T03:17:31.105Z,611.73
2023-01-17T03:18:31.226Z,606.70
2023-01-17T03:19:31.095Z,599.04
2023-01-17T03:20:31.104Z,594.75
2023-01-17T03:21:31.181Z,588.95
2023-01-17T03:22:31.065Z,570.73
2023-01-17T03:23:31.058Z,573.20
2023-01-17T03:24:31.185Z,567.32
2023-01-17T03:25:31.031Z,558.27
2023-01-17T03:26:31.063Z,544.09
2023-01-17T03:27:31.020Z,544.98
2023-01-17T03:28:31.010Z,540.99
2023-01-17T03:29:31.024Z,534.46
2023-01-17T03:30:31.060Z,529.77
2023-01-17T03:31:30.996Z,528.09
2023-01-17T03:32:31.003Z,520.64
2023-01-17T03:33:30.974Z,514.99
2023-01-17T03:34:30.959Z,503.28
2023-01-17T03:35:30.972Z,500.63
2023-01-17T03:36:30.937Z,496.51
2023-01-17T03:37:31.041Z,484.92
2023-01-17T03:38:30.923Z,474.52
2023-01-17T03:39:30.913Z,474.86
2023-01-17T03:40:30.909Z,474.52
2023-01-17T03:41:30.898Z,472.16
2023-01-17T03:42:30.900Z,471.49
2023-01-17T03:43:30.872Z,473.17
2023-01-17T03:44:30.884Z,472.50
2023-01-17T03:45:30.878Z,480.36
2023-01-17T03:46:30.951Z,475.54
2023-01-17T03:47:30.848Z,476.23
2023-01-17T03:48:30.948Z,482.10
2023-01-17T03:49:30.826Z,483.15
2023-01-17T03:50:30.831Z,483.50
2023-01-17T03:51:30.830Z,485.62
2023-01-17T03:52:30.840Z,487.41
2023-01-17T03:53:30.785Z,489.20
2023-01-17T03:54:30.762Z,497.26
2023-01-17T03:55:30.761Z,498.38
2023-01-17T03:56:30.774Z,503.67
2023-01-17T03:57:30.772Z,509.85
2023-01-17T03:58:30.771Z,516.19
2023-01-17T03:59:30.732Z,518.61
2023-01-17T04:00:30.723Z,521.05
2023-01-17T04:01:30.892Z,525.58
2023-01-17T04:02:30.725Z,523.51
2023-01-17T04:03:30.781Z,524.75
2023-01-17T04:04:30.709Z,523.92
2023-01-17T04:05:30.677Z,525.58
2023-01-17T04:06:30.698Z,531.47
2023-01-17T04:07:30.672Z,523.92
2023-01-17T04:08:30.661Z,523.51
2023-01-17T04:09:30.693Z,521.87
2023-01-17T04:10:30.632Z,527.25
2023-01-17T04:11:30.666Z,528.09
2023-01-17T04:12:30.712Z,521.46
2023-01-17T04:13:30.576Z,525.58
2023-01-17T04:14:30.679Z,513.79
2023-01-17T04:15:30.588Z,511.81
2023-01-17T04:16:30.613Z,520.64
2023-01-17T04:17:30.572Z,513.79
2023-01-17T04:18:30.542Z,516.99
2023-01-17T04:19:30.549Z,510.63
2023-01-17T04:20:30.532Z,508.29
2023-01-17T04:21:30.528Z,506.74
2023-01-17T04:22:30.505Z,507.90
2023-01-17T04:23:30.527Z,504.43
2023-01-17T04:24:30.484Z,503.67
2023-01-17T04:25:30.483Z,501.76
2023-01-17T04:26:30.562Z,504.43
2023-01-17T04:27:30.451Z,500.25
2023-01-17T04:28:30.464Z,502.52
2023-01-17T04:29:30.543Z,505.20
2023-01-17T04:30:30.453Z,498.75
2023-01-17T04:31:30.432Z,502.52
2023-01-17T04:32:30.482Z,504.43
2023-01-17T04:33:30.391Z,505.20
2023-01-17T04:34:30.411Z,508.29
2023-01-17T04:35:30.504Z,511.03
2023-01-17T04:36:30.404Z,516.99
2023-01-17T04:37:30.369Z,523.51
2023-01-17T04:38:30.466Z,534.89
2023-01-17T04:39:30.340Z,543.65
2023-01-17T04:40:30.332Z,553.61
2023-01-17T04:41:30.436Z,564.91
2023-01-17T04:42:30.306Z,576.18
2023-01-17T04:43:30.330Z,594.22
2023-01-17T04:44:30.368Z,619.72
2023-01-17T04:45:30.328Z,637.56
2023-01-17T04:46:30.297Z,666.33
2023-01-17T04:47:30.270Z,688.43
2023-01-17T04:48:30.273Z,703.00
2023-01-17T04:49:30.279Z,713.57
2023-01-17T04:50:30.237Z,727.64
2023-01-17T04:51:30.380Z,735.70
2023-01-17T04:52:30.223Z,747.19
2023-01-17T04:53:30.209Z,757.83
2023-01-17T04:54:30.352Z,760.87
2023-01-17T04:55:30.189Z,752.69
2023-01-17T04:56:30.180Z,741.45
2023-01-17T04:57:30.275Z,734.88
2023-01-17T04:58:30.171Z,725.26
2023-01-17T04:59:30.163Z,713.57
2023-01-17T05:00:30.321Z,703.00
2023-01-17T05:01:30.258Z,689.14
2023-01-17T05:02:30.158Z,683.47
2023-01-17T05:03:30.260Z,675.14
2023-01-17T05:04:30.115Z,669.69
2023-01-17T05:05:30.128Z,667.67
2023-01-17T05:06:30.170Z,656.46
2023-01-17T05:07:30.095Z,644.99
2023-01-17T05:08:30.057Z,640.63
2023-01-17T05:09:30.187Z,641.25
2023-01-17T05:10:30.064Z,644.36
2023-01-17T05:11:30.041Z,635.73
2023-01-17T05:12:30.153Z,632.70
2023-01-17T05:13:30.017Z,626.73
2023-01-17T05:14:30.029Z,623.20
2023-01-17T05:15:30.158Z,612.29
2023-01-17T05:16:29.985Z,597.96
2023-01-17T05:17:29.990Z,576.68
2023-01-17T05:18:30.068Z,563.95
2023-01-17T05:19:29.957Z,556.39
2023-01-17T05:20:29.979Z,552.69
2023-01-17T05:21:30.078Z,546.33
2023-01-17T05:22:29.932Z,540.99
2023-01-17T05:23:30.030Z,541.43
2023-01-17T05:24:30.036Z,534.89
2023-01-17T05:25:29.915Z,524.34
2023-01-17T05:26:29.905Z,521.05
2023-01-17T05:27:30.012Z,512.21
2023-01-17T05:28:29.895Z,504.05
2023-01-17T05:29:29.866Z,489.92
2023-01-17T05:30:30.060Z,475.20
2023-01-17T05:31:29.881Z,463.27
2023-01-17T05:32:29.845Z,456.27
2023-01-17T05:33:29.974Z,439.96
2023-01-17T05:34:29.821Z,431.11
2023-01-17T05:35:29.856Z,423.14
2023-01-17T05:36:29.957Z,416.25
2023-01-17T05:37:29.814Z,410.08
2023-01-17T05:38:29.784Z,403.85
2023-01-17T05:39:29.842Z,397.33
2023-01-17T05:40:29.785Z,395.44
2023-01-17T05:41:29.754Z,389.64
2023-01-17T05:42:29.867Z,386.02
2023-01-17T05:43:29.734Z,382.24
2023-01-17T05:44:29.722Z,376.73
2023-01-17T05:45:29.877Z,372.43
2023-01-17T05:46:29.753Z,365.77
2023-01-17T05:47:29.711Z,358.55
2023-01-17T05:48:29.791Z,350.85
2023-01-17T05:49:29.680Z,338.15
2023-01-17T05:50:29.675Z,330.62
2023-01-17T05:51:29.684Z,319.32
2023-01-17T05:52:29.696Z,310.52
2023-01-17T05:53:29.648Z,299.70
2023-01-17T05:54:29.635Z,288.34
2023-01-17T05:55:29.727Z,280.18
2023-01-17T05:56:29.615Z,270.67
2023-01-17T05:57:29.621Z,260.11
2023-01-17T05:58:29.611Z,249.59
2023-01-17T05:59:36.898Z,239.35
2023-01-17T06:00:29.695Z,229.76
2023-01-17T06:01:29.586Z,223.63
2023-01-17T06:02:29.635Z,218.99
2023-01-17T06:03:29.573Z,213.27
2023-01-17T06:04:29.578Z,208.25
2023-01-17T06:05:29.579Z,201.57
2023-01-17T06:06:29.535Z,194.84
2023-01-17T06:07:29.548Z,188.55
2023-01-17T06:08:29.547Z,186.19
2023-01-17T06:09:29.559Z,183.50
2023-01-17T06:10:29.545Z,174.45
2023-01-17T06:11:29.495Z,168.27
2023-01-17T06:12:29.558Z,159.85
2023-01-17T06:13:29.563Z,152.10
2023-01-17T06:14:29.451Z,145.45
2023-01-17T06:15:29.519Z,139.12
2023-01-17T06:16:29.449Z,135.05
2023-01-17T06:17:29.422Z,131.01
2023-01-17T06:18:29.533Z,128.88
2023-01-17T06:19:29.398Z,126.52
2023-01-17T06:20:29.400Z,125.47
2023-01-17T06:21:29.498Z,124.16
2023-01-17T06:22:29.370Z,122.42
2023-01-17T06:23:29.380Z,121.26
2023-01-17T06:24:29.502Z,120.38
2023-01-17T06:25:29.345Z,119.35
2023-01-17T06:26:29.394Z,118.50
2023-01-17T06:27:29.422Z,117.57
2023-01-17T06:28:29.416Z,116.34
2023-01-17T06:29:29.258Z,114.58
2023-01-17T06:30:29.344Z,113.40
2023-01-17T06:31:29.330Z,111.88
2023-01-17T06:32:29.301Z,110.25
2023-01-17T06:33:29.365Z,108.17
2023-01-17T06:34:29.218Z,106.16
2023-01-17T06:35:29.228Z,105.35
2023-01-17T06:36:29.275Z,105.69
2023-01-17T06:37:29.218Z,104.62
2023-01-17T06:38:29.165Z,104.96
2023-01-17T06:39:29.254Z,104.36
2023-01-17T06:40:29.153Z,104.62
2023-01-17T06:41:29.146Z,102.69
2023-01-17T06:42:29.227Z,102.24
2023-01-17T06:43:29.143Z,100.82
2023-01-17T06:44:29.111Z,99.97
2023-01-17T06:45:29.225Z,99.31
2023-01-17T06:46:29.103Z,98.55
2023-01-17T06:47:29.085Z,99.91
2023-01-17T06:48:29.186Z,100.21
2023-01-17T06:49:29.100Z,98.66
2023-01-17T06:50:29.072Z,97.74
2023-01-17T06:51:29.085Z,97.17
2023-01-17T06:52:29.035Z,96.49
2023-01-17T06:53:29.050Z,95.22
2023-01-17T06:54:29.114Z,95.27
2023-01-17T06:55:29.060Z,95.44
2023-01-17T06:56:29.018Z,94.57
2023-01-17T06:57:29.065Z,95.27
2023-01-17T06:58:28.981Z,95.49
2023-01-17T06:59:28.980Z,95.49
2023-01-17T07:00:29.444Z,95.60
2023-01-17T07:01:29.087Z,95.71
2023-01-17T07:02:28.951Z,95.27
2023-01-17T07:03:29.150Z,94.78
2023-01-17T07:04:28.927Z,95.38
2023-01-17T07:05:28.919Z,96.38
2023-01-17T07:06:29.044Z,97.62
2023-01-17T07:07:28.935Z,98.02
2023-01-17T07:08:28.898Z,98.96
2023-01-17T07:09:28.982Z,99.08
2023-01-17T07:10:28.937Z,99.19
2023-01-17T07:11:28.881Z,98.02
2023-01-17T07:12:28.953Z,97.74
2023-01-17T07:13:28.856Z,97.39
2023-01-17T07:14:28.855Z,96.54
2023-01-17T07:15:28.856Z,97.34
2023-01-17T07:16:28.909Z,98.72
2023-01-17T07:17:28.812Z,98.61
2023-01-17T07:18:28.813Z,96.88
2023-01-17T07:19:28.809Z,96.38
2023-01-17T07:20:28.796Z,95.49
2023-01-17T07:21:28.793Z,94.41
2023-01-17T07:22:28.886Z,94.14
2023-01-17T07:23:28.752Z,96.06
2023-01-17T07:24:28.777Z,95.84
2023-01-17T07:25:28.879Z,95.95
2023-01-17T07:26:28.731Z,95.05
2023-01-17T07:27:28.763Z,94.19
2023-01-17T07:28:28.819Z,94.30
2023-01-17T07:29:28.692Z,94.68
2023-01-17T07:30:28.692Z,95.38
2023-01-17T07:31:28.741Z,94.94
2023-01-17T07:32:28.697Z,95.05
2023-01-17T07:33:28.688Z,94.68
2023-01-17T07:34:28.655Z,94.73
2023-01-17T07:35:28.662Z,94.46
2023-01-17T07:36:28.636Z,94.30
2023-01-17T07:37:28.628Z,95.95
2023-01-17T07:38:28.618Z,95.73
2023-01-17T07:39:28.737Z,95.62
2023-01-17T07:40:28.614Z,95.73
2023-01-17T07:41:28.587Z,95.51
2023-01-17T07:42:28.593Z,95.73
2023-01-17T07:43:28.584Z,95.62
2023-01-17T07:44:28.551Z,95.84
2023-01-17T07:45:28.601Z,94.96
2023-01-17T07:46:28.554Z,94.74
2023-01-17T07:47:28.544Z,94.64
2023-01-17T07:48:28.582Z,93.89
2023-01-17T07:49:28.527Z,93.36
2023-01-17T07:50:28.527Z,91.71
2023-01-17T07:51:28.499Z,90.22
2023-01-17T07:52:28.482Z,89.64
2023-01-17T07:53:28.576Z,88.87
2023-01-17T07:54:28.488Z,88.96
2023-01-17T07:55:28.512Z,88.77
2023-01-17T07:56:28.454Z,89.06
2023-01-17T07:57:28.490Z,89.15
2023-01-17T07:58:28.440Z,89.54
2023-01-17T07:59:28.488Z,89.25
2023-01-17T08:00:28.542Z,88.96
2023-01-17T08:01:28.593Z,88.40
2023-01-17T08:02:28.406Z,88.11
2023-01-17T08:03:28.401Z,88.11
2023-01-17T08:04:28.545Z,87.84
2023-01-17T08:05:28.423Z,88.11
2023-01-17T08:06:28.379Z,88.96
2023-01-17T08:07:28.374Z,90.12
2023-01-17T08:08:28.396Z,90.51
2023-01-17T08:09:28.350Z,92.12
2023-01-17T08:10:28.367Z,93.15
2023-01-17T08:11:28.327Z,95.07
2023-01-17T08:12:28.371Z,96.06
2023-01-17T08:13:29.926Z,94.19
2023-01-17T08:14:28.284Z,94.62
2023-01-17T08:15:28.441Z,94.78
2023-01-17T08:16:28.325Z,94.30
2023-01-17T08:17:28.336Z,94.09
2023-01-17T08:18:28.322Z,95.73
2023-01-17T08:19:28.254Z,95.62
2023-01-17T08:20:28.408Z,94.64
2023-01-17T08:21:28.236Z,94.10
2023-01-17T08:22:28.246Z,92.84
2023-01-17T08:23:28.370Z,90.91
2023-01-17T08:24:28.286Z,90.12
2023-01-17T08:25:28.190Z,89.54
2023-01-17T08:26:28.193Z,88.77
2023-01-17T08:27:28.173Z,88.30
2023-01-17T08:28:28.273Z,87.74
2023-01-17T08:29:28.149Z,87.37
2023-01-17T08:30:28.183Z,87.01
2023-01-17T08:31:28.336Z,86.74
2023-01-17T08:32:28.112Z,86.74
2023-01-17T08:33:28.104Z,87.10
2023-01-17T08:34:28.282Z,87.10
2023-01-17T08:35:28.185Z,87.10
2023-01-17T08:36:28.098Z,87.37
2023-01-17T08:37:28.195Z,86.92
2023-01-17T08:38:28.056Z,86.83
2023-01-17T08:39:28.055Z,86.47
2023-01-17T08:40:28.157Z,86.92
2023-01-17T08:41:28.537Z,87.37
2023-01-17T08:42:28.055Z,88.30
2023-01-17T08:43:28.120Z,88.87
2023-01-17T08:44:28.013Z,89.54
2023-01-17T08:45:28.067Z,90.22
2023-01-17T08:46:28.115Z,90.91
2023-01-17T08:47:27.991Z,91.21
2023-01-17T08:48:27.965Z,92.22
2023-01-17T08:49:28.226Z,92.74
2023-01-17T08:50:27.948Z,93.36
2023-01-17T08:51:27.944Z,94.74
2023-01-17T08:52:27.975Z,95.51
2023-01-17T08:53:27.936Z,94.46
2023-01-17T08:54:27.934Z,94.35
2023-01-17T08:55:28.006Z,94.89
2023-01-17T08:56:27.961Z,95.60
2023-01-17T08:57:27.883Z,97.97
2023-01-17T08:58:30.298Z,98.66
2023-01-17T08:59:27.881Z,98.49
2023-01-17T09:00:27.856Z,97.17
2023-01-17T09:01:28.036Z,95.00
2023-01-17T09:02:27.852Z,94.96
2023-01-17T09:03:27.860Z,95.73
2023-01-17T09:04:27.923Z,94.09
2023-01-17T09:05:27.809Z,94.89
2023-01-17T09:06:27.816Z,94.19
2023-01-17T09:07:27.900Z,94.74
2023-01-17T09:08:27.795Z,95.18
2023-01-17T09:09:27.762Z,94.74
2023-01-17T09:10:27.815Z,93.05
2023-01-17T09:11:27.763Z,91.92
2023-01-17T09:12:27.752Z,93.15
2023-01-17T09:13:27.761Z,93.15
2023-01-17T09:14:27.761Z,93.68
2023-01-17T09:15:27.742Z,93.05
2023-01-17T09:16:27.777Z,92.94
2023-01-17T09:17:27.703Z,94.21
2023-01-17T09:18:27.688Z,95.07
2023-01-17T09:19:27.680Z,95.49
2023-01-17T09:20:27.788Z,95.65
2023-01-17T09:21:27.655Z,97.34
2023-01-17T09:22:27.655Z,99.67
2023-01-17T09:23:27.742Z,99.97
2023-01-17T09:24:27.648Z,103.20
2023-01-17T09:25:27.618Z,103.71
2023-01-17T09:26:27.715Z,106.43
2023-01-17T09:27:27.598Z,107.54
2023-01-17T09:28:27.601Z,109.02
2023-01-17T09:29:27.694Z,108.66
2023-01-17T09:30:27.620Z,108.31
2023-01-17T09:31:27.556Z,107.33
2023-01-17T09:32:27.608Z,107.40
2023-01-17T09:33:27.548Z,106.84
2023-01-17T09:34:27.566Z,107.19
2023-01-17T09:35:27.654Z,108.94
2023-01-17T09:36:27.510Z,109.16
2023-01-17T09:37:27.523Z,110.54
2023-01-17T09:38:27.561Z,110.68
2023-01-17T09:39:27.493Z,111.50
2023-01-17T09:40:27.496Z,111.13
2023-01-17T09:41:27.509Z,112.18
2023-01-17T09:42:27.469Z,114.34
2023-01-17T09:43:27.453Z,122.24
2023-01-17T09:44:27.549Z,126.71
2023-01-17T09:45:27.437Z,130.09
2023-01-17T09:46:27.453Z,133.21
2023-01-17T09:47:27.563Z,137.97
2023-01-17T09:48:27.387Z,140.18
2023-01-17T09:49:27.392Z,140.77
2023-01-17T09:50:27.441Z,140.41
2023-01-17T09:51:27.380Z,139.01
2023-01-17T09:52:27.379Z,139.82
2023-01-17T09:53:27.480Z,140.41
2023-01-17T09:54:27.402Z,141.25
2023-01-17T09:55:27.339Z,143.57
2023-01-17T09:56:27.370Z,144.44
2023-01-17T09:57:27.309Z,147.78
2023-01-17T09:58:27.311Z,152.52
2023-01-17T09:59:33.224Z,156.69
2023-01-17T10:00:27.304Z,162.67
2023-01-17T10:01:27.447Z,166.42
2023-01-17T10:02:27.469Z,171.57
2023-01-17T10:03:27.390Z,176.30
2023-01-17T10:04:27.476Z,180.90
2023-01-17T10:05:27.325Z,185.75
2023-01-17T10:06:27.221Z,184.61
2023-01-17T10:07:27.210Z,184.92
2023-01-17T10:08:27.242Z,186.59
2023-01-17T10:09:27.219Z,187.36
2023-01-17T10:10:27.256Z,186.40
2023-01-17T10:11:27.267Z,187.47
2023-01-17T10:12:27.165Z,194.26
2023-01-17T10:13:27.150Z,196.72
2023-01-17T10:14:27.171Z,199.11
2023-01-17T10:15:27.142Z,199.60
2023-01-17T10:16:27.183Z,200.70
2023-01-17T10:17:27.105Z,201.07
2023-01-17T10:18:30.382Z,199.72
2023-01-17T10:19:27.095Z,196.24
2023-01-17T10:20:27.088Z,195.31
2023-01-17T10:21:27.128Z,193.80
2023-01-17T10:22:27.092Z,193.46
2023-01-17T10:23:27.062Z,194.49
2023-01-17T10:24:27.152Z,194.26
2023-01-17T10:25:27.053Z,193.12
2023-01-17T10:26:27.053Z,197.19
2023-01-17T10:27:27.083Z,202.82
2023-01-17T10:28:27.018Z,212.30
2023-01-17T10:29:27.024Z,226.74
2023-01-17T10:30:26.982Z,235.39
2023-01-17T10:31:27.021Z,242.73
2023-01-17T10:32:26.978Z,247.14
2023-01-17T10:33:27.013Z,256.04
2023-01-17T10:34:27.037Z,264.32
2023-01-17T10:35:26.939Z,277.80
2023-01-17T10:36:26.960Z,294.04
2023-01-17T10:37:26.952Z,313.50
2023-01-17T10:38:26.938Z,348.98
2023-01-17T10:39:26.962Z,391.24
2023-01-17T10:40:26.895Z,427.50
2023-01-17T10:41:26.919Z,468.17
2023-01-17T10:42:26.895Z,503.67
2023-01-17T10:43:26.859Z,546.78
2023-01-17T10:44:26.851Z,607.25
2023-01-17T10:45:26.856Z,669.02
2023-01-17T10:46:26.906Z,739.79
2023-01-17T10:47:26.852Z,794.50
2023-01-17T10:48:26.807Z,848.76
2023-01-17T10:49:26.811Z,899.26
2023-01-17T10:50:26.801Z,944.60
2023-01-17T10:51:26.850Z,1009.10
2023-01-17T10:52:26.827Z,1056.39
2023-01-17T10:53:26.786Z,1085.71
2023-01-17T10:54:26.768Z,1105.57
2023-01-17T10:55:26.805Z,1129.03
2023-01-17T10:56:26.753Z,1152.51
2023-01-17T10:57:26.761Z,1182.22
2023-01-17T10:58:26.766Z,1203.62
2023-01-17T10:59:26.753Z,1210.19
2023-01-17T11:00:26.717Z,1248.83
2023-01-17T11:01:26.799Z,1281.31
2023-01-17T11:02:26.838Z,1347.52
2023-01-17T11:03:26.698Z,1404.44
2023-01-17T11:04:26.706Z,1447.22
2023-01-17T11:05:26.678Z,1466.37
2023-01-17T11:06:26.627Z,1489.36
2023-01-17T11:07:26.705Z,1514.81
2023-01-17T11:08:26.802Z,1526.10
2023-01-17T11:09:26.596Z,1553.74
2023-01-17T11:10:26.626Z,1582.39
2023-01-17T11:11:26.647Z,1669.81
2023-01-17T11:12:26.805Z,1708.41
2023-01-17T11:13:26.578Z,1758.10
2023-01-17T11:14:26.658Z,1774.52
2023-01-17T11:15:26.600Z,1848.51
2023-01-17T11:16:27.604Z,1861.44
2023-01-17T11:17:26.592Z,1851.08
2023-01-17T11:18:26.531Z,1874.56
2023-01-17T11:19:26.529Z,1887.86
2023-01-17T11:20:26.517Z,1902.72
2023-01-17T11:21:26.489Z,1961.65
2023-01-17T11:22:26.485Z,1992.51
2023-01-17T11:23:26.489Z,2004.52
2023-01-17T11:24:26.469Z,2089.55
2023-01-17T11:25:26.498Z,2171.43
2023-01-17T11:26:26.565Z,2157.34
2023-01-17T11:27:26.456Z,2191.10
2023-01-17T11:28:26.470Z,2201.99
2023-01-17T11:29:26.519Z,2229.67
2023-01-17T11:30:26.451Z,2291.13
2023-01-17T11:31:26.520Z,2372.88
2023-01-17T11:32:26.465Z,2462.96
2023-01-17T11:33:26.369Z,2526.11
2023-01-17T11:34:26.443Z,2557.69
2023-01-17T11:35:26.353Z,2528.52
2023-01-17T11:36:26.352Z,2488.31
2023-01-17T11:37:26.386Z,2438.13
2023-01-17T11:38:26.379Z,2427.01
2023-01-17T11:39:26.362Z,2427.01
2023-01-17T11:40:26.294Z,2535.75
2023-01-17T11:41:26.297Z,2711.52
2023-01-17T11:42:26.312Z,2962.14
2023-01-17T11:43:26.383Z,3129.41
2023-01-17T11:44:26.302Z,3255.81
2023-01-17T11:45:26.247Z,3327.08
2023-01-17T11:46:26.332Z,3416.83
2023-01-17T11:47:26.277Z,3493.11
2023-01-17T11:48:26.243Z,3549.03
2023-01-17T11:49:26.214Z,3626.45
2023-01-17T11:50:26.234Z,3584.91
2023-01-17T11:51:26.226Z,3589.74
2023-01-17T11:52:26.262Z,3565.68
2023-01-17T11:53:26.203Z,3611.68
2023-01-17T11:54:26.217Z,3594.59
2023-01-17T11:55:26.149Z,3643.83
2023-01-17T11:56:26.189Z,3749.12
2023-01-17T11:57:26.138Z,4082.89
2023-01-17T11:58:26.130Z,4325.20
2023-01-17T11:59:26.146Z,4606.06
2023-01-17T12:00:26.106Z,4590.16
2023-01-17T12:01:26.274Z,4493.24
2023-01-17T12:02:26.095Z,4451.88
2023-01-17T12:03:26.221Z,4422.28
2023-01-17T12:04:26.103Z,4433.33
2023-01-17T12:05:26.070Z,4286.87
2023-01-17T12:06:26.087Z,4297.25
2023-01-17T12:07:26.052Z,4307.69
2023-01-17T12:08:26.117Z,4318.18
2023-01-17T12:09:26.149Z,4314.68
2023-01-17T12:10:26.084Z,4293.79
2023-01-17T12:11:26.011Z,4339.31
2023-01-17T12:12:25.989Z,4232.30
2023-01-17T12:13:26.007Z,4242.42
2023-01-17T12:14:26.056Z,4425.96
2023-01-17T12:15:25.987Z,4504.66
2023-01-17T12:16:26.008Z,4459.35
2023-01-17T12:17:25.960Z,4478.11
2023-01-17T12:18:25.969Z,4440.73
2023-01-17T12:19:25.934Z,4335.78
2023-01-17T12:20:25.903Z,4314.68
2023-01-17T12:21:25.966Z,4279.97
2023-01-17T12:22:26.065Z,4242.42
2023-01-17T12:23:25.895Z,4182.39
2023-01-17T12:24:25.871Z,4082.89
2023-01-17T12:25:25.952Z,4003.01
2023-01-17T12:26:25.904Z,3852.28
2023-01-17T12:27:25.857Z,3765.04